Strona główna
METAR-TAF:

METAR-TAF

Lotnisko :

Port lotniczy Stuttgart

Stuttgart, Niemcy

Szerokość geograficzna: 48-41N, Długość geograficzna: 009-13E, wysokość: 396 m

Aktualna obserwacja pogody

Raport powstał 15 minut temu, godzina 18:20 UTC
Wiatr 6 kt od północno-północny zachód
Temperatura 23°C
Wilgotność 41%
Ciśnienie 1013 hPa
Widzialność 10 km lub więcej
Brak chmur poniżej 1500 m i brak chmur cumulonimbus

METAR: EDDS 171820Z 33006KT CAVOK 23/09 Q1013 NOSIG

czas: 20:35 (18:35 UTC)

Prognoza

Raport powstał 1 godzina i 35 minut temu, godzina 17:00 UTC
Prognoza ważna od 17 godzina 18 UTC do 18 godzina 18 UTC
Wiatr 9 kt od północno-północny zachód
Widzialność 10 km lub więcej
Brak chmur poniżej 1500 m i brak chmur cumulonimbus
Stopniowe zmiany
od 17 godzina 19 UTC do 17 godzina 21 UTC
Wiatr 3 kt z kierunków zmiennych
Stopniowe zmiany
od 18 godzina 08 UTC do 18 godzina 10 UTC
Wiatr 5 kt od północny zachód

TAF: EDDS 171700Z 1718/1818 33009KT CAVOK BECMG 1719/1721 VRB03KT BECMG 1808/1810 31005KT

Obserwacja i prognoza pogody dla ponad 4000 lotnisk (raport METAR i TAF).

Dostępne stacje oznaczono żółtymi i czerwonymi punktami na mapie.

Najedź kursorem aby zobaczyć nazwę stacji.

Kliknij aby zobaczyć obserwacje i prognozy pogody.

Aby zmienić mapę: kliknij na zielony przycisk z czarnym krzyżykiem, aby powiększyć; na zielony przycisk z myślnikiem, aby pomniejszyć; na zielone strzałki, aby przejść do map sąsiednich.


METAR-TAF: